Time;durP1;ratioP1;P1;durP2;ratioP2;P2;SDS_P1;SDS_P2;PMS_P1;PMS_P2;Temp;Humidity;BMP_temperature;BMP_pressure;BME280_temperature;BME280_humidity;BME280_pressure;Samples;Min_cycle;Max_cycle;Signal;HPM_P1;HPM_P2
2023/01/30 00:01:42;;;;;;;17.63;9.33;;;;;;;-141.59;100.00;61776.25;5089514;28;20211;-76
2023/01/30 00:04:11;;;;;;;15.33;8.87;;;;;;;-141.59;100.00;61776.25;5088204;28;20209;-76
2023/01/30 00:06:38;;;;;;;18.10;10.50;;;;;;;-141.59;100.00;61776.25;5091809;28;20200;-76
2023/01/30 00:09:11;;;;;;;17.47;9.90;;;;;;;-141.59;100.00;61776.25;5079029;28;20347;-76
2023/01/30 00:11:38;;;;;;;16.97;8.87;;;;;;;-141.59;100.00;61776.25;5083838;28;20206;-76
2023/01/30 00:14:08;;;;;;;17.93;10.33;;;;;;;-141.59;100.00;61776.25;5089106;28;20219;-76
2023/01/30 00:16:35;;;;;;;17.23;9.07;;;;;;;-141.59;100.00;61776.25;5089085;28;20309;-76
2023/01/30 00:19:02;;;;;;;15.57;9.20;;;;;;;-141.59;100.00;61776.25;5086665;28;20202;-76
2023/01/30 00:21:29;;;;;;;17.37;9.87;;;;;;;-141.59;100.00;61776.25;5086536;28;20236;-76
2023/01/30 00:23:56;;;;;;;15.87;9.30;;;;;;;-141.59;100.00;61776.25;5079113;28;20255;-76
2023/01/30 00:26:24;;;;;;;16.13;8.57;;;;;;;-141.59;100.00;61776.25;5081622;28;20213;-76
2023/01/30 00:28:51;;;;;;;17.90;9.93;;;;;;;-141.59;100.00;61776.25;5081990;28;20196;-76
2023/01/30 00:31:18;;;;;;;19.77;10.17;;;;;;;-141.59;100.00;61776.25;5085319;28;20266;-76
2023/01/30 00:33:45;;;;;;;19.57;10.67;;;;;;;-141.59;100.00;61776.25;5086697;28;20274;-76
2023/01/30 00:36:12;;;;;;;17.73;10.17;;;;;;;-141.59;100.00;61776.25;5084043;28;20209;-76
2023/01/30 00:38:39;;;;;;;16.00;10.23;;;;;;;-141.59;100.00;61776.25;5083495;28;20215;-76
2023/01/30 00:41:09;;;;;;;19.57;10.30;;;;;;;-141.59;100.00;61776.25;5087694;28;20205;-76
2023/01/30 00:49:11;;;;;;;19.93;9.63;;;;;;;-141.59;100.00;61776.25;5086720;28;20208;-76
2023/01/30 00:51:38;;;;;;;18.97;10.23;;;;;;;-141.59;100.00;61776.25;5087476;28;20450;-75
2023/01/30 00:54:05;;;;;;;17.87;9.73;;;;;;;-141.59;100.00;61776.25;5080379;28;20228;-76
2023/01/30 00:56:32;;;;;;;19.03;10.03;;;;;;;-141.59;100.00;61776.25;5081926;28;20200;-75
2023/01/30 00:59:01;;;;;;;16.00;9.30;;;;;;;-141.59;100.00;61776.25;5077470;28;20205;-76
2023/01/30 01:01:28;;;;;;;16.93;9.33;;;;;;;-141.59;100.00;61776.25;5083078;28;20203;-76
2023/01/30 01:03:55;;;;;;;17.13;10.17;;;;;;;-141.59;100.00;61776.25;5076631;28;20197;-76
2023/01/30 01:06:22;;;;;;;19.10;10.37;;;;;;;-141.59;100.00;61776.25;5087987;28;20208;-76
2023/01/30 01:08:49;;;;;;;17.33;9.27;;;;;;;-141.59;100.00;61776.25;5085534;28;20314;-76
2023/01/30 01:11:23;;;;;;;17.30;10.33;;;;;;;-141.59;100.00;61776.25;5075328;28;20263;-76
2023/01/30 01:13:54;;;;;;;19.77;10.63;;;;;;;-141.59;100.00;61776.25;5080972;28;20314;-75
2023/01/30 01:16:23;;;;;;;14.77;8.53;;;;;;;-141.59;100.00;61776.25;5079537;28;20221;-76
2023/01/30 01:18:51;;;;;;;17.63;9.93;;;;;;;-141.59;100.00;61776.25;5085826;28;20198;-75
2023/01/30 01:21:19;;;;;;;17.10;9.03;;;;;;;-141.59;100.00;61776.25;5087094;28;20228;-76
2023/01/30 01:23:50;;;;;;;18.77;9.10;;;;;;;-141.59;100.00;61776.25;5085758;28;20192;-75
2023/01/30 01:26:19;;;;;;;15.73;8.80;;;;;;;-141.59;100.00;61776.25;5082678;28;20260;-75
2023/01/30 01:28:46;;;;;;;19.63;9.73;;;;;;;-141.59;100.00;61776.25;5078289;28;20196;-75
2023/01/30 01:31:15;;;;;;;17.97;9.87;;;;;;;-141.59;100.00;61776.25;5079362;28;20200;-75
2023/01/30 01:33:43;;;;;;;14.97;8.93;;;;;;;-141.59;100.00;61776.25;5088023;28;20193;-75
2023/01/30 01:36:10;;;;;;;14.43;9.03;;;;;;;-141.59;100.00;61776.25;5082933;28;20250;-75
2023/01/30 01:38:37;;;;;;;15.73;9.77;;;;;;;-141.59;100.00;61776.25;5086239;28;20212;-75
2023/01/30 01:41:05;;;;;;;16.43;9.20;;;;;;;-141.59;100.00;61776.25;5086418;28;20204;-75
2023/01/30 01:43:36;;;;;;;15.40;9.43;;;;;;;-141.59;100.00;61776.25;5084061;28;20227;-75
2023/01/30 01:46:10;;;;;;;15.53;8.30;;;;;;;-141.59;100.00;61776.25;5079240;28;20228;-75
2023/01/30 01:48:41;;;;;;;16.23;8.97;;;;;;;-141.59;100.00;61776.25;5081323;28;20196;-75
2023/01/30 01:51:12;;;;;;;14.13;8.43;;;;;;;-141.59;100.00;61776.25;5076455;28;20220;-75
2023/01/30 01:53:44;;;;;;;14.00;8.40;;;;;;;-141.59;100.00;61776.25;5073994;28;20204;-75
2023/01/30 01:56:14;;;;;;;16.83;7.97;;;;;;;-141.59;100.00;61776.25;5082552;28;20204;-75
2023/01/30 01:58:46;;;;;;;13.90;8.80;;;;;;;-141.59;100.00;61776.25;5084232;28;20254;-75
2023/01/30 02:01:14;;;;;;;17.30;8.90;;;;;;;-141.59;100.00;61776.25;5086438;28;20200;-75
2023/01/30 02:03:45;;;;;;;14.40;7.97;;;;;;;-141.59;100.00;61776.25;5080795;28;20262;-74
2023/01/30 02:06:19;;;;;;;18.70;8.73;;;;;;;-141.59;100.00;61776.25;5089008;28;20271;-76
2023/01/30 02:08:50;;;;;;;15.27;8.53;;;;;;;-141.59;100.00;61776.25;5086712;28;20216;-75
2023/01/30 02:11:26;;;;;;;16.37;8.60;;;;;;;-141.59;100.00;61776.25;5088164;28;20196;-75
2023/01/30 02:13:54;;;;;;;16.10;8.40;;;;;;;-141.59;100.00;61776.25;5084870;28;20235;-75
2023/01/30 02:16:21;;;;;;;14.60;8.43;;;;;;;-141.59;100.00;61776.25;5084296;28;20304;-75
2023/01/30 02:18:49;;;;;;;13.50;7.50;;;;;;;-141.59;100.00;61776.25;5082887;28;20199;-75
2023/01/30 02:21:53;;;;;;;14.20;7.80;;;;;;;-141.59;100.00;61776.25;5087400;28;20226;-75
2023/01/30 02:24:51;;;;;;;18.23;8.67;;;;;;;-141.59;100.00;61776.25;5063677;28;20203;-75
2023/01/30 02:27:42;;;;;;;17.27;8.03;;;;;;;-141.59;100.00;61776.25;5064393;28;20263;-75
2023/01/30 02:30:29;;;;;;;15.47;8.37;;;;;;;-141.59;100.00;61776.25;5075749;28;20209;-75
2023/01/30 02:33:08;;;;;;;15.53;8.33;;;;;;;-141.59;100.00;61776.25;5081806;28;20270;-74
2023/01/30 02:35:42;;;;;;;16.03;8.73;;;;;;;-141.59;100.00;61776.25;5083182;28;20221;-75
2023/01/30 02:38:25;;;;;;;15.77;8.30;;;;;;;-141.59;100.00;61776.25;5075844;28;20207;-75
2023/01/30 02:41:02;;;;;;;13.80;7.70;;;;;;;-141.59;100.00;61776.25;5081162;28;20204;-75
2023/01/30 02:43:38;;;;;;;18.10;8.07;;;;;;;-141.59;100.00;61776.25;5084087;28;20200;-75
2023/01/30 02:46:12;;;;;;;15.53;8.23;;;;;;;-141.59;100.00;61776.25;5077524;28;20200;-76
2023/01/30 02:48:46;;;;;;;14.70;7.80;;;;;;;-141.59;100.00;61776.25;5078802;28;20268;-75
2023/01/30 02:51:19;;;;;;;14.37;7.33;;;;;;;-141.59;100.00;61776.25;5078236;28;20215;-75
2023/01/30 02:53:48;;;;;;;15.93;8.43;;;;;;;-141.59;100.00;61776.25;5080150;28;20212;-75
2023/01/30 02:56:15;;;;;;;13.97;7.40;;;;;;;-141.59;100.00;61776.25;5075030;28;20227;-75
2023/01/30 02:58:48;;;;;;;13.77;7.53;;;;;;;-141.59;100.00;61776.25;5072437;28;20203;-75
2023/01/30 03:01:46;;;;;;;14.47;7.33;;;;;;;-141.59;100.00;61776.25;5085497;28;20201;-75
2023/01/30 03:04:31;;;;;;;13.87;8.13;;;;;;;-141.59;100.00;61776.25;5094974;28;20212;-75
2023/01/30 03:07:13;;;;;;;13.07;7.93;;;;;;;-141.59;100.00;61776.25;5084863;28;20203;-75
2023/01/30 03:09:49;;;;;;;15.37;8.00;;;;;;;-141.59;100.00;61776.25;5086147;28;20202;-75
2023/01/30 03:12:28;;;;;;;13.43;7.90;;;;;;;-141.59;100.00;61776.25;5081614;28;20208;-75
2023/01/30 03:15:00;;;;;;;16.13;7.93;;;;;;;-141.59;100.00;61776.25;5083042;28;20291;-75
2023/01/30 03:17:29;;;;;;;17.63;8.87;;;;;;;-141.59;100.00;61776.25;5088388;28;20208;-75
2023/01/30 03:19:58;;;;;;;13.83;8.07;;;;;;;-141.59;100.00;61776.25;5085358;28;20272;-75
2023/01/30 03:22:25;;;;;;;15.93;8.30;;;;;;;-141.59;100.00;61776.25;5090490;28;20251;-75
2023/01/30 03:24:54;;;;;;;16.60;8.73;;;;;;;-141.59;100.00;61776.25;5089711;28;20200;-75
2023/01/30 03:27:22;;;;;;;14.97;8.07;;;;;;;-141.59;100.00;61776.25;5079070;28;20205;-75
2023/01/30 03:29:49;;;;;;;15.27;9.03;;;;;;;-141.59;100.00;61776.25;5081866;28;20258;-75
2023/01/30 03:32:16;;;;;;;19.53;9.17;;;;;;;-141.59;100.00;61776.25;5085941;28;20201;-75
2023/01/30 03:34:44;;;;;;;15.20;8.37;;;;;;;-141.59;100.00;61776.25;5087232;28;20270;-75
2023/01/30 03:37:12;;;;;;;15.87;8.30;;;;;;;-141.59;100.00;61776.25;5086070;28;20205;-75
2023/01/30 03:39:40;;;;;;;14.33;8.30;;;;;;;-141.59;100.00;61776.25;5075210;28;20236;-75
2023/01/30 03:42:07;;;;;;;13.47;7.77;;;;;;;-141.59;100.00;61776.25;5084576;28;20286;-75
2023/01/30 03:44:34;;;;;;;14.50;8.03;;;;;;;-141.59;100.00;61776.25;5084559;28;20197;-75
2023/01/30 03:47:02;;;;;;;16.33;7.70;;;;;;;-141.59;100.00;61776.25;5087137;28;20219;-75
2023/01/30 03:49:29;;;;;;;14.87;8.33;;;;;;;-141.59;100.00;61776.25;5085958;28;20205;-75
2023/01/30 03:51:57;;;;;;;13.00;7.27;;;;;;;-141.59;100.00;61776.25;5084197;28;20196;-75
2023/01/30 03:54:25;;;;;;;15.33;8.00;;;;;;;-141.59;100.00;61776.25;5082277;28;20204;-75
2023/01/30 03:56:54;;;;;;;12.57;7.70;;;;;;;-141.59;100.00;61776.25;5082990;28;20285;-75
2023/01/30 03:59:21;;;;;;;15.17;7.57;;;;;;;-141.59;100.00;61776.25;5086995;28;20252;-75
2023/01/30 04:01:54;;;;;;;14.73;7.60;;;;;;;-141.59;100.00;61776.25;5086110;28;20200;-75
2023/01/30 04:04:23;;;;;;;14.57;7.57;;;;;;;-141.59;100.00;61776.25;5084190;28;20264;-74
2023/01/30 04:06:50;;;;;;;15.47;7.67;;;;;;;-141.59;100.00;61776.25;5081077;28;20189;-75
2023/01/30 04:09:18;;;;;;;12.93;7.43;;;;;;;-141.59;100.00;61776.25;5076249;28;20213;-75
2023/01/30 04:11:49;;;;;;;13.23;6.87;;;;;;;-141.59;100.00;61776.25;5083320;28;20260;-75
2023/01/30 04:14:17;;;;;;;12.27;6.37;;;;;;;-141.59;100.00;61776.25;5083339;28;20206;-75
2023/01/30 04:17:02;;;;;;;13.63;7.30;;;;;;;-141.59;100.00;61776.25;5088110;28;20212;-75
2023/01/30 04:19:55;;;;;;;13.93;7.20;;;;;;;-141.59;100.00;61776.25;5087733;28;20213;-75
2023/01/30 04:22:22;;;;;;;12.53;7.50;;;;;;;-141.59;100.00;61776.25;5086639;28;20237;-75
2023/01/30 04:24:49;;;;;;;13.43;7.83;;;;;;;-141.59;100.00;61776.25;5087655;28;20207;-76
2023/01/30 04:27:20;;;;;;;13.47;7.57;;;;;;;-141.59;100.00;61776.25;5085366;28;20209;-77
2023/01/30 04:30:17;;;;;;;12.90;7.50;;;;;;;-141.59;100.00;61776.25;5080053;28;20323;-77
2023/01/30 04:32:45;;;;;;;11.87;6.87;;;;;;;-141.59;100.00;61776.25;5081074;28;20221;-75
2023/01/30 04:35:12;;;;;;;14.50;7.90;;;;;;;-141.59;100.00;61776.25;5082610;28;20241;-75
2023/01/30 04:37:40;;;;;;;14.10;7.27;;;;;;;-141.59;100.00;61776.25;5086167;28;20209;-75
2023/01/30 04:40:11;;;;;;;13.93;7.07;;;;;;;-141.59;100.00;61776.25;5089634;28;20202;-75
2023/01/30 04:42:40;;;;;;;13.13;7.20;;;;;;;-141.59;100.00;61776.25;5060825;28;20197;-74
2023/01/30 04:45:25;;;;;;;12.70;7.50;;;;;;;-141.59;100.00;61776.25;5081423;28;20215;-75
2023/01/30 04:47:53;;;;;;;16.47;7.33;;;;;;;-141.59;100.00;61776.25;5079743;28;20202;-75
2023/01/30 04:50:20;;;;;;;12.80;7.63;;;;;;;-141.59;100.00;61776.25;5083437;28;20198;-74
2023/01/30 04:52:47;;;;;;;13.80;7.97;;;;;;;-141.59;100.00;61776.25;5079583;28;20270;-75
2023/01/30 04:55:14;;;;;;;16.20;8.47;;;;;;;-141.59;100.00;61776.25;5087663;28;20217;-75
2023/01/30 04:57:43;;;;;;;16.67;9.30;;;;;;;-141.59;100.00;61776.25;5085500;28;20201;-74
2023/01/30 05:00:11;;;;;;;16.30;8.50;;;;;;;-141.59;100.00;61776.25;5087573;28;20199;-75
2023/01/30 05:02:44;;;;;;;18.73;10.00;;;;;;;-141.59;100.00;61776.25;5080979;28;20221;-75
2023/01/30 05:05:11;;;;;;;14.83;8.17;;;;;;;-141.59;100.00;61776.25;5085197;28;20193;-75
2023/01/30 05:07:38;;;;;;;17.03;8.67;;;;;;;-141.59;100.00;61776.25;5085105;28;20219;-75
2023/01/30 05:10:06;;;;;;;12.63;7.43;;;;;;;-141.59;100.00;61776.25;5079213;28;20204;-75
2023/01/30 05:12:33;;;;;;;15.13;8.27;;;;;;;-141.59;100.00;61776.25;5079817;28;20208;-74
2023/01/30 05:15:02;;;;;;;15.57;8.17;;;;;;;-141.59;100.00;61776.25;5085909;28;20306;-75
2023/01/30 05:17:29;;;;;;;21.77;10.43;;;;;;;-141.59;100.00;61776.25;5086328;28;20204;-75
2023/01/30 05:19:56;;;;;;;19.17;8.87;;;;;;;-141.59;100.00;61776.25;5079505;28;20209;-75
2023/01/30 05:22:22;;;;;;;15.07;8.70;;;;;;;-141.59;100.00;61776.25;5088594;28;20243;-75
2023/01/30 05:24:49;;;;;;;15.57;8.43;;;;;;;-141.59;100.00;61776.25;5080213;28;20239;-75
2023/01/30 05:27:16;;;;;;;15.93;9.00;;;;;;;-141.59;100.00;61776.25;5083002;28;20207;-75
2023/01/30 05:29:43;;;;;;;16.70;7.70;;;;;;;-141.59;100.00;61776.25;5081782;28;20204;-75
2023/01/30 05:32:13;;;;;;;16.13;9.90;;;;;;;-141.59;100.00;61776.25;5085284;28;20205;-75
2023/01/30 05:34:40;;;;;;;19.27;10.00;;;;;;;-141.59;100.00;61776.25;5086927;28;20205;-75
2023/01/30 05:37:07;;;;;;;15.07;8.57;;;;;;;-141.59;100.00;61776.25;5087209;28;20220;-75
2023/01/30 05:39:35;;;;;;;15.03;9.37;;;;;;;-141.59;100.00;61776.25;5085489;28;20216;-75
2023/01/30 05:42:02;;;;;;;14.93;8.90;;;;;;;-141.59;100.00;61776.25;5084559;28;20200;-75
2023/01/30 05:44:29;;;;;;;15.27;8.90;;;;;;;-141.59;100.00;61776.25;5086287;28;20212;-75
2023/01/30 05:46:56;;;;;;;16.47;8.87;;;;;;;-141.59;100.00;61776.25;5077916;28;20204;-75
2023/01/30 05:49:25;;;;;;;13.90;8.03;;;;;;;-141.59;100.00;61776.25;5085684;28;20268;-76
2023/01/30 05:51:52;;;;;;;15.80;8.10;;;;;;;-141.59;100.00;61776.25;5079929;28;20200;-78
2023/01/30 05:54:19;;;;;;;15.53;8.73;;;;;;;-141.59;100.00;61776.25;5084265;28;20214;-76
2023/01/30 05:56:49;;;;;;;12.17;7.83;;;;;;;-141.59;100.00;61776.25;5076247;28;20285;-76
2023/01/30 05:59:17;;;;;;;13.13;7.63;;;;;;;-141.59;100.00;61776.25;5087170;28;20200;-76
2023/01/30 06:01:44;;;;;;;13.73;7.43;;;;;;;-141.59;100.00;61776.25;5087777;28;20287;-75
2023/01/30 06:04:11;;;;;;;13.10;7.87;;;;;;;-141.59;100.00;61776.25;5081263;28;20193;-75
2023/01/30 06:06:40;;;;;;;15.80;8.93;;;;;;;-141.59;100.00;61776.25;5083929;28;20200;-75
2023/01/30 06:09:07;;;;;;;16.77;9.60;;;;;;;-141.59;100.00;61776.25;5086096;28;20204;-75
2023/01/30 06:11:34;;;;;;;13.33;8.63;;;;;;;-141.59;100.00;61776.25;5083853;28;20200;-76
2023/01/30 06:14:01;;;;;;;15.03;8.03;;;;;;;-141.59;100.00;61776.25;5085262;28;20213;-76
2023/01/30 06:16:28;;;;;;;13.90;7.80;;;;;;;-141.59;100.00;61776.25;5086398;28;20220;-76
2023/01/30 06:18:55;;;;;;;13.40;8.10;;;;;;;-141.59;100.00;61776.25;5086774;28;20254;-75
2023/01/30 06:21:23;;;;;;;15.67;8.07;;;;;;;-141.59;100.00;61776.25;5084997;28;20247;-76
2023/01/30 06:23:51;;;;;;;15.27;8.80;;;;;;;-141.59;100.00;61776.25;5081649;28;20253;-76
2023/01/30 06:26:18;;;;;;;20.30;10.57;;;;;;;-141.59;100.00;61776.25;5081808;28;20209;-76
2023/01/30 06:28:45;;;;;;;16.13;9.27;;;;;;;-141.59;100.00;61776.25;5081624;28;20212;-75
2023/01/30 06:31:12;;;;;;;18.83;10.37;;;;;;;-141.59;100.00;61776.25;5081148;28;20247;-75
2023/01/30 06:33:39;;;;;;;17.43;8.83;;;;;;;-141.59;100.00;61776.25;5075900;28;20205;-76
2023/01/30 06:36:07;;;;;;;18.83;9.63;;;;;;;-141.59;100.00;61776.25;5082749;28;20286;-75
2023/01/30 06:38:34;;;;;;;18.03;10.13;;;;;;;-141.59;100.00;61776.25;5087141;28;20200;-75
2023/01/30 06:41:02;;;;;;;19.07;10.97;;;;;;;-141.59;100.00;61776.25;5085856;28;20205;-75
2023/01/30 06:43:29;;;;;;;26.63;14.83;;;;;;;-141.59;100.00;61776.25;5087672;28;20205;-75
2023/01/30 06:45:59;;;;;;;23.90;11.47;;;;;;;-141.59;100.00;61776.25;5085951;28;20212;-75
2023/01/30 06:48:26;;;;;;;22.97;11.93;;;;;;;-141.59;100.00;61776.25;5086119;28;20272;-76
2023/01/30 06:50:53;;;;;;;22.67;12.07;;;;;;;-141.59;100.00;61776.25;5087511;28;20205;-75
2023/01/30 06:53:21;;;;;;;31.80;12.17;;;;;;;-141.59;100.00;61776.25;5086549;28;20273;-76
2023/01/30 06:55:48;;;;;;;21.17;11.57;;;;;;;-141.59;100.00;61776.25;5082684;28;20278;-75
2023/01/30 06:58:17;;;;;;;22.03;12.00;;;;;;;-141.59;100.00;61776.25;5089978;28;20192;-75
2023/01/30 07:00:44;;;;;;;25.03;11.43;;;;;;;-141.59;100.00;61776.25;5089327;28;20296;-74
2023/01/30 07:03:12;;;;;;;23.50;11.17;;;;;;;-141.59;100.00;61776.25;5077868;28;20205;-75
2023/01/30 07:05:39;;;;;;;20.63;10.10;;;;;;;-141.59;100.00;61776.25;5082821;28;20199;-74
2023/01/30 07:08:08;;;;;;;21.03;9.77;;;;;;;-141.59;100.00;61776.25;5086606;28;20201;-74
2023/01/30 07:10:35;;;;;;;17.37;8.83;;;;;;;-141.59;100.00;61776.25;5087841;28;20208;-75
2023/01/30 07:13:03;;;;;;;14.20;8.40;;;;;;;-141.59;100.00;61776.25;5075660;28;20217;-74
2023/01/30 07:15:32;;;;;;;21.60;10.87;;;;;;;-141.59;100.00;61776.25;5078831;28;20225;-74
2023/01/30 07:17:59;;;;;;;21.10;12.13;;;;;;;-141.59;100.00;61776.25;5086838;28;20236;-74
2023/01/30 07:20:28;;;;;;;24.30;12.27;;;;;;;-141.59;100.00;61776.25;5081611;28;20203;-75
2023/01/30 07:22:56;;;;;;;22.73;11.30;;;;;;;-141.59;100.00;61776.25;5087054;28;20305;-74
2023/01/30 07:25:25;;;;;;;20.60;11.13;;;;;;;-141.59;100.00;61776.25;5083073;28;20208;-74
2023/01/30 07:27:52;;;;;;;20.80;10.93;;;;;;;-141.59;100.00;61776.25;5085747;28;20221;-74
2023/01/30 07:30:20;;;;;;;16.73;10.10;;;;;;;-141.59;100.00;61776.25;5086070;28;20205;-74
2023/01/30 07:32:51;;;;;;;19.23;10.43;;;;;;;-141.59;100.00;61776.25;5087971;28;20192;-74
2023/01/30 07:35:19;;;;;;;23.27;11.20;;;;;;;-141.59;100.00;61776.25;5084794;28;20209;-74
2023/01/30 07:37:46;;;;;;;24.70;13.20;;;;;;;-141.59;100.00;61776.25;5087403;28;20273;-77
2023/01/30 07:40:14;;;;;;;22.53;10.67;;;;;;;-141.59;100.00;61776.25;5088864;28;20223;-76
2023/01/30 07:42:42;;;;;;;19.57;11.23;;;;;;;-141.59;100.00;61776.25;5084275;28;20196;-77
2023/01/30 07:45:10;;;;;;;19.63;10.87;;;;;;;-141.59;100.00;61776.25;5086489;28;20208;-77
2023/01/30 07:47:37;;;;;;;18.33;10.87;;;;;;;-141.59;100.00;61776.25;5096839;28;20205;-77
2023/01/30 07:50:07;;;;;;;19.90;11.70;;;;;;;-141.59;100.00;61776.25;5086273;28;20205;-77
2023/01/30 07:52:35;;;;;;;20.90;11.47;;;;;;;-141.59;100.00;61776.25;5085796;28;20216;-77
2023/01/30 07:55:02;;;;;;;20.67;11.17;;;;;;;-141.59;100.00;61776.25;5085309;28;20203;-77
2023/01/30 07:57:30;;;;;;;19.37;11.33;;;;;;;-141.59;100.00;61776.25;5079899;28;20222;-77
2023/01/30 07:59:57;;;;;;;21.67;12.73;;;;;;;-141.59;100.00;61776.25;5085527;28;20251;-75
2023/01/30 08:02:24;;;;;;;20.33;11.50;;;;;;;-141.59;100.00;61776.25;5090162;28;20261;-74
2023/01/30 08:04:51;;;;;;;20.53;11.40;;;;;;;-141.59;100.00;61776.25;5084653;28;20201;-75
2023/01/30 08:07:20;;;;;;;22.83;12.03;;;;;;;-141.59;100.00;61776.25;5082924;28;20204;-75
2023/01/30 08:09:47;;;;;;;20.13;11.37;;;;;;;-141.59;100.00;61776.25;5084360;28;20208;-75
2023/01/30 08:12:14;;;;;;;18.90;10.17;;;;;;;-141.59;100.00;61776.25;5101314;28;20212;-75
2023/01/30 08:14:41;;;;;;;22.30;12.90;;;;;;;-141.59;100.00;61776.25;5084190;28;20250;-75
2023/01/30 08:17:08;;;;;;;24.13;12.33;;;;;;;-141.59;100.00;61776.25;5085138;28;20232;-75
2023/01/30 08:19:35;;;;;;;18.53;9.83;;;;;;;-141.59;100.00;61776.25;5088995;28;20197;-75
2023/01/30 08:22:02;;;;;;;23.87;12.20;;;;;;;-141.59;100.00;61776.25;5086630;28;20264;-75
2023/01/30 08:24:30;;;;;;;22.77;10.53;;;;;;;-141.59;100.00;61776.25;5083055;28;20208;-75
2023/01/30 08:26:59;;;;;;;20.47;11.03;;;;;;;-141.59;100.00;61776.25;5087830;28;20208;-76
2023/01/30 08:29:27;;;;;;;20.00;11.17;;;;;;;-141.59;100.00;61776.25;5082438;28;20201;-75
2023/01/30 08:31:57;;;;;;;22.33;12.63;;;;;;;-141.59;100.00;61776.25;5080929;28;20209;-75
2023/01/30 08:34:24;;;;;;;23.93;12.20;;;;;;;-141.59;100.00;61776.25;5084881;28;20201;-75
2023/01/30 08:36:51;;;;;;;20.57;11.57;;;;;;;-141.59;100.00;61776.25;5086255;28;20294;-75
2023/01/30 08:39:18;;;;;;;22.17;11.57;;;;;;;-141.59;100.00;61776.25;5086725;28;20204;-75
2023/01/30 08:41:46;;;;;;;21.67;10.83;;;;;;;-141.59;100.00;61776.25;5083217;28;20259;-75
2023/01/30 08:44:13;;;;;;;18.47;11.00;;;;;;;-141.59;100.00;61776.25;5082145;28;20292;-75
2023/01/30 08:46:40;;;;;;;20.00;10.63;;;;;;;-141.59;100.00;61776.25;5081840;28;20253;-75
2023/01/30 08:49:07;;;;;;;20.07;10.53;;;;;;;-141.59;100.00;61776.25;5081593;28;20220;-75
2023/01/30 08:51:34;;;;;;;20.37;11.17;;;;;;;-141.59;100.00;61776.25;5082256;28;20204;-75
2023/01/30 08:54:01;;;;;;;21.23;10.53;;;;;;;-141.59;100.00;61776.25;5082588;28;20211;-75
2023/01/30 08:56:29;;;;;;;20.43;10.87;;;;;;;-141.59;100.00;61776.25;5078065;28;20213;-77
2023/01/30 08:58:57;;;;;;;19.07;11.07;;;;;;;-141.59;100.00;61776.25;5085831;28;20193;-75
2023/01/30 09:01:30;;;;;;;15.87;9.20;;;;;;;-141.59;100.00;61776.25;5082962;28;20197;-75
2023/01/30 09:04:03;;;;;;;18.90;10.40;;;;;;;-141.59;100.00;61776.25;5092103;28;20263;-76
2023/01/30 09:06:30;;;;;;;23.73;11.67;;;;;;;-141.59;100.00;61776.25;5078303;28;20273;-76
2023/01/30 09:09:01;;;;;;;18.43;9.80;;;;;;;-141.59;100.00;61776.25;5077496;28;20291;-76
2023/01/30 09:11:28;;;;;;;14.57;8.40;;;;;;;-141.59;100.00;61776.25;5087448;28;20219;-76
2023/01/30 09:13:55;;;;;;;17.93;9.67;;;;;;;-141.59;100.00;61776.25;5088255;28;20204;-76
2023/01/30 09:16:23;;;;;;;18.67;9.30;;;;;;;-141.59;100.00;61776.25;5081930;28;20233;-76
2023/01/30 09:18:50;;;;;;;14.67;8.63;;;;;;;-141.59;100.00;61776.25;5083088;28;20236;-76
2023/01/30 09:21:17;;;;;;;17.20;7.77;;;;;;;-141.59;100.00;61776.25;5080881;28;20233;-76
2023/01/30 09:23:45;;;;;;;15.30;8.70;;;;;;;-141.59;100.00;61776.25;5087291;28;20205;-76
2023/01/30 09:26:12;;;;;;;15.73;8.67;;;;;;;-141.59;100.00;61776.25;5086103;28;20196;-76
2023/01/30 09:28:39;;;;;;;15.60;9.37;;;;;;;-141.59;100.00;61776.25;5082663;28;20204;-77
2023/01/30 09:31:06;;;;;;;15.57;8.83;;;;;;;-141.59;100.00;61776.25;5081862;28;20212;-76
2023/01/30 09:33:35;;;;;;;18.77;9.07;;;;;;;-141.59;100.00;61776.25;5081778;28;20208;-75
2023/01/30 09:36:02;;;;;;;16.27;8.57;;;;;;;-141.59;100.00;61776.25;5078756;28;20208;-76
2023/01/30 09:38:29;;;;;;;14.20;8.60;;;;;;;-141.59;100.00;61776.25;5084945;28;20279;-75
2023/01/30 09:41:33;;;;;;;17.53;9.53;;;;;;;-141.59;100.00;61776.25;5084250;28;20211;-76
2023/01/30 09:44:34;;;;;;;15.60;9.63;;;;;;;-141.59;100.00;61776.25;5078822;28;20201;-76
2023/01/30 09:47:09;;;;;;;17.13;9.80;;;;;;;-141.59;100.00;61776.25;5080154;28;20192;-76
2023/01/30 09:49:48;;;;;;;21.30;10.13;;;;;;;-141.59;100.00;61776.25;5082258;28;20201;-76
2023/01/30 09:52:27;;;;;;;18.00;9.23;;;;;;;-141.59;100.00;61776.25;5080361;28;20208;-75
2023/01/30 09:55:00;;;;;;;20.20;10.10;;;;;;;-141.59;100.00;61776.25;5079865;28;20204;-76
2023/01/30 09:57:28;;;;;;;15.97;9.27;;;;;;;-141.59;100.00;61776.25;5080961;28;20220;-76
2023/01/30 10:00:01;;;;;;;19.90;10.77;;;;;;;-141.59;100.00;61776.25;5079567;28;20201;-76
2023/01/30 10:02:39;;;;;;;17.77;9.77;;;;;;;-141.59;100.00;61776.25;5069748;28;20261;-76
2023/01/30 10:05:07;;;;;;;21.60;10.30;;;;;;;-141.59;100.00;61776.25;5084479;28;20295;-76
2023/01/30 10:07:53;;;;;;;16.57;9.57;;;;;;;-141.59;100.00;61776.25;5072528;28;20258;-75
2023/01/30 10:10:33;;;;;;;24.37;10.90;;;;;;;-141.59;100.00;61776.25;5080855;28;20254;-76
2023/01/30 10:13:14;;;;;;;19.90;10.37;;;;;;;-141.59;100.00;61776.25;5081403;28;20211;-75
2023/01/30 10:15:51;;;;;;;18.63;10.17;;;;;;;-141.59;100.00;61776.25;5080391;28;20267;-76
2023/01/30 10:18:49;;;;;;;19.47;9.70;;;;;;;-141.59;100.00;61776.25;5087982;28;20224;-76
2023/01/30 10:21:27;;;;;;;25.67;10.20;;;;;;;-141.59;100.00;61776.25;5091635;28;20233;-76
2023/01/30 10:24:10;;;;;;;32.00;9.90;;;;;;;-141.59;100.00;61776.25;5087826;28;20209;-75
2023/01/30 10:26:41;;;;;;;18.93;10.77;;;;;;;-141.59;100.00;61776.25;5083195;28;20232;-76
2023/01/30 10:29:15;;;;;;;37.87;16.13;;;;;;;-141.59;100.00;61776.25;5080217;28;20276;-76
2023/01/30 10:31:47;;;;;;;21.57;12.13;;;;;;;-141.59;100.00;61776.25;5089960;28;20211;-75
2023/01/30 10:34:19;;;;;;;20.70;11.23;;;;;;;-141.59;100.00;61776.25;5079969;28;20205;-76
2023/01/30 10:36:54;;;;;;;23.40;11.07;;;;;;;-141.59;100.00;61776.25;5089896;28;20228;-77
2023/01/30 10:39:28;;;;;;;22.23;11.30;;;;;;;-141.59;100.00;61776.25;5090565;28;20212;-77
2023/01/30 10:42:05;;;;;;;20.30;11.00;;;;;;;-141.59;100.00;61776.25;5091519;28;20232;-76
2023/01/30 10:44:33;;;;;;;23.87;11.20;;;;;;;-141.59;100.00;61776.25;5081946;28;20212;-77
2023/01/30 10:47:29;;;;;;;33.90;12.50;;;;;;;-141.59;100.00;61776.25;5088487;28;20201;-76
2023/01/30 10:50:02;;;;;;;20.80;10.77;;;;;;;-141.59;100.00;61776.25;5071709;28;20211;-76
2023/01/30 10:52:41;;;;;;;17.90;11.00;;;;;;;-141.59;100.00;61776.25;5085522;28;20294;-76
2023/01/30 10:55:16;;;;;;;17.03;10.93;;;;;;;-141.59;100.00;61776.25;5086806;28;20298;-76
2023/01/30 10:57:54;;;;;;;20.00;11.70;;;;;;;-141.59;100.00;61776.25;5083340;28;20282;-76
2023/01/30 11:00:29;;;;;;;20.63;11.97;;;;;;;-141.59;100.00;61776.25;5087164;28;20204;-76
2023/01/30 11:03:11;;;;;;;19.10;11.33;;;;;;;-141.59;100.00;61776.25;5084830;28;20265;-77
2023/01/30 11:05:46;;;;;;;19.50;11.80;;;;;;;-141.59;100.00;61776.25;5081185;28;20197;-76
2023/01/30 11:08:20;;;;;;;22.77;12.10;;;;;;;-141.59;100.00;61776.25;5091082;28;20250;-77
2023/01/30 11:10:51;;;;;;;25.37;13.03;;;;;;;-141.59;100.00;61776.25;5091841;28;20207;-77
2023/01/30 11:13:21;;;;;;;22.97;13.13;;;;;;;-141.59;100.00;61776.25;5087722;28;20208;-77
2023/01/30 11:15:51;;;;;;;24.10;11.80;;;;;;;-141.59;100.00;61776.25;5087939;28;20265;-77
2023/01/30 11:18:20;;;;;;;23.97;10.83;;;;;;;-141.59;100.00;61776.25;5088537;28;20228;-77
2023/01/30 11:21:00;;;;;;;18.93;11.17;;;;;;;-141.59;100.00;61776.25;5071385;28;20221;-77